createdAt,value
2023-01-31T00:01:52.964Z,-0.81
2023-01-31T00:05:00.601Z,-0.92
2023-01-31T00:08:07.286Z,-0.75
2023-01-31T00:11:14.325Z,-0.77
2023-01-31T00:14:22.082Z,-0.83
2023-01-31T00:17:27.963Z,-0.76
2023-01-31T00:20:36.381Z,-0.91
2023-01-31T00:23:44.396Z,-0.97
2023-01-31T00:26:56.938Z,-1.06
2023-01-31T00:30:03.048Z,-0.88
2023-01-31T00:33:09.117Z,-0.85
2023-01-31T00:36:17.910Z,-0.87
2023-01-31T00:39:24.308Z,-0.82
2023-01-31T00:42:30.331Z,-0.97
2023-01-31T00:45:36.424Z,-0.96
2023-01-31T00:48:43.074Z,-1.05
2023-01-31T00:51:51.300Z,-0.91
2023-01-31T00:54:57.596Z,-0.98
2023-01-31T00:58:03.782Z,-1.14
2023-01-31T01:01:13.095Z,-1.07
2023-01-31T01:04:19.157Z,-1.02
2023-01-31T01:07:26.757Z,-1.04
2023-01-31T01:10:33.515Z,-1.11
2023-01-31T01:13:40.195Z,-1.00
2023-01-31T01:16:46.349Z,-1.13
2023-01-31T01:19:52.569Z,-0.98
2023-01-31T01:23:00.675Z,-0.95
2023-01-31T01:26:07.110Z,-0.95
2023-01-31T01:29:13.979Z,-1.21
2023-01-31T01:32:20.403Z,-1.06
2023-01-31T01:35:26.427Z,-0.97
2023-01-31T01:38:36.387Z,-1.03
2023-01-31T01:41:42.857Z,-1.34
2023-01-31T01:44:52.541Z,-1.28
2023-01-31T01:48:02.116Z,-1.05
2023-01-31T01:51:09.388Z,-0.89
2023-01-31T01:54:22.042Z,-0.88
2023-01-31T01:57:34.626Z,-1.00
2023-01-31T02:00:41.283Z,-0.58
2023-01-31T02:03:49.229Z,-0.81
2023-01-31T02:06:56.075Z,-0.89
2023-01-31T02:10:09.946Z,-0.69
2023-01-31T02:13:17.642Z,-0.76
2023-01-31T02:16:24.628Z,-0.68
2023-01-31T02:19:39.483Z,-0.58
2023-01-31T02:23:00.495Z,-0.72
2023-01-31T02:26:47.870Z,-0.91
2023-01-31T02:30:26.361Z,-0.77
2023-01-31T02:33:42.416Z,-0.63
2023-01-31T02:37:02.378Z,-0.47
2023-01-31T02:40:17.083Z,-0.24
2023-01-31T02:43:28.700Z,-0.40
2023-01-31T02:46:42.028Z,-0.41
2023-01-31T02:49:56.254Z,-0.49
2023-01-31T02:53:08.483Z,-0.39
2023-01-31T02:56:24.373Z,-0.44
2023-01-31T02:59:32.095Z,-0.29
2023-01-31T03:02:38.755Z,-0.26
2023-01-31T03:05:46.132Z,-0.66
2023-01-31T03:08:55.038Z,-0.75
2023-01-31T03:12:16.626Z,-1.01
2023-01-31T03:16:06.604Z,-1.24
2023-01-31T03:19:18.604Z,-0.80
2023-01-31T03:22:31.105Z,-0.60
2023-01-31T03:25:39.543Z,-1.16
2023-01-31T03:28:45.629Z,-0.94
2023-01-31T03:31:57.848Z,0.34
2023-01-31T03:35:04.738Z,1.02
2023-01-31T03:38:18.822Z,1.26
2023-01-31T03:41:36.150Z,1.23
2023-01-31T03:44:48.287Z,1.27
2023-01-31T03:47:56.958Z,1.10
2023-01-31T03:51:09.513Z,1.11
2023-01-31T03:54:21.713Z,1.15
2023-01-31T03:57:32.525Z,1.06
2023-01-31T04:00:42.809Z,1.17
2023-01-31T04:03:54.934Z,1.16
2023-01-31T04:07:01.592Z,1.11
2023-01-31T04:10:13.014Z,1.08
2023-01-31T04:13:19.153Z,1.20
2023-01-31T04:16:25.160Z,1.08
2023-01-31T04:19:31.260Z,1.07
2023-01-31T04:22:37.374Z,1.09
2023-01-31T04:25:44.942Z,1.18
2023-01-31T04:28:51.155Z,1.19
2023-01-31T04:31:57.280Z,1.05
2023-01-31T04:35:03.175Z,1.11
2023-01-31T04:38:09.319Z,1.10
2023-01-31T04:41:16.932Z,1.14
2023-01-31T04:44:23.176Z,1.18
2023-01-31T04:47:29.310Z,1.35
2023-01-31T04:50:35.435Z,1.29
2023-01-31T04:53:41.339Z,1.24
2023-01-31T04:56:48.987Z,1.21
2023-01-31T04:59:57.793Z,0.89
2023-01-31T05:03:06.210Z,0.81
2023-01-31T05:06:12.851Z,0.59
2023-01-31T05:09:19.298Z,0.90
2023-01-31T05:12:28.538Z,0.66
2023-01-31T05:15:34.371Z,0.81
2023-01-31T05:18:41.200Z,0.66
2023-01-31T05:21:59.154Z,0.75
2023-01-31T05:25:06.000Z,0.72
2023-01-31T05:28:13.731Z,0.62
2023-01-31T05:31:22.633Z,0.78
2023-01-31T05:34:32.895Z,0.84
2023-01-31T05:37:42.509Z,0.82
2023-01-31T05:40:50.733Z,0.69
2023-01-31T05:43:58.253Z,0.53
2023-01-31T05:47:04.345Z,0.71
2023-01-31T05:50:11.612Z,0.50
2023-01-31T05:53:17.475Z,0.61
2023-01-31T05:56:24.347Z,0.62
2023-01-31T05:59:33.780Z,0.45
2023-01-31T06:02:39.994Z,0.48
2023-01-31T06:05:46.197Z,0.55
2023-01-31T06:08:52.544Z,0.55
2023-01-31T06:12:01.367Z,0.66
2023-01-31T06:15:16.986Z,0.73
2023-01-31T06:18:23.180Z,0.62
2023-01-31T06:21:29.301Z,0.62
2023-01-31T06:24:35.421Z,0.62
2023-01-31T06:27:41.424Z,0.61
2023-01-31T06:30:49.111Z,0.90
2023-01-31T06:33:56.149Z,1.09
2023-01-31T06:37:02.452Z,0.91
2023-01-31T06:40:09.422Z,0.90
2023-01-31T06:43:15.549Z,0.79
2023-01-31T06:46:23.206Z,0.90
2023-01-31T06:49:29.690Z,0.95
2023-01-31T06:52:35.948Z,0.85
2023-01-31T06:55:44.866Z,1.06
2023-01-31T06:58:51.119Z,1.01
2023-01-31T07:01:58.428Z,1.09
2023-01-31T07:05:04.987Z,1.13
2023-01-31T07:08:10.896Z,1.26
2023-01-31T07:11:16.684Z,1.14
2023-01-31T07:14:22.816Z,1.52
2023-01-31T07:17:30.288Z,1.17
2023-01-31T07:20:36.380Z,1.49
2023-01-31T07:23:45.557Z,1.50
2023-01-31T07:26:54.279Z,1.52
2023-01-31T07:30:00.806Z,1.45
2023-01-31T07:33:08.458Z,1.80
2023-01-31T07:36:16.295Z,1.69
2023-01-31T07:39:22.321Z,1.67
2023-01-31T07:42:29.970Z,2.00
2023-01-31T07:45:36.591Z,2.02
2023-01-31T07:48:44.478Z,2.01
2023-01-31T07:51:51.092Z,2.18
2023-01-31T07:54:57.104Z,1.88
2023-01-31T07:58:03.431Z,2.07
2023-01-31T08:01:31.912Z,1.99
2023-01-31T08:04:39.565Z,1.89
2023-01-31T08:08:05.837Z,2.19
2023-01-31T08:11:11.959Z,2.12
2023-01-31T08:14:17.827Z,2.25
2023-01-31T08:17:24.122Z,2.14
2023-01-31T08:20:31.754Z,1.91
2023-01-31T08:23:39.530Z,1.89
2023-01-31T08:26:46.685Z,1.81
2023-01-31T08:29:53.058Z,1.81
2023-01-31T08:32:58.972Z,1.70
2023-01-31T08:36:15.962Z,1.64
2023-01-31T08:39:22.038Z,2.01
2023-01-31T08:42:28.027Z,2.70
2023-01-31T08:45:34.217Z,3.12
2023-01-31T08:48:42.104Z,3.20
2023-01-31T08:51:49.781Z,2.96
2023-01-31T08:54:56.114Z,3.82
2023-01-31T08:58:02.896Z,3.52
2023-01-31T09:01:10.759Z,3.49
2023-01-31T09:04:17.185Z,3.24
2023-01-31T09:07:24.831Z,3.18
2023-01-31T09:10:31.400Z,3.81
2023-01-31T09:13:37.864Z,3.90
2023-01-31T09:16:45.941Z,4.23
2023-01-31T09:19:52.325Z,4.43
2023-01-31T09:23:00.293Z,4.48
2023-01-31T09:26:07.495Z,4.27
2023-01-31T09:29:13.778Z,4.26
2023-01-31T09:32:21.442Z,4.47
2023-01-31T09:35:28.354Z,4.04
2023-01-31T09:38:38.979Z,4.89
2023-01-31T09:41:48.653Z,4.62
2023-01-31T09:45:03.253Z,4.85
2023-01-31T09:48:16.389Z,4.01
2023-01-31T09:51:24.069Z,3.97
2023-01-31T09:54:36.728Z,4.26
2023-01-31T09:57:52.308Z,5.03
2023-01-31T10:01:08.150Z,4.53
2023-01-31T10:04:30.884Z,4.76
2023-01-31T10:07:42.546Z,5.07
2023-01-31T10:10:53.484Z,4.60
2023-01-31T10:14:06.812Z,4.41
2023-01-31T10:17:18.040Z,5.01
2023-01-31T10:20:33.486Z,4.69
2023-01-31T10:23:43.998Z,4.93
2023-01-31T10:26:54.493Z,4.25
2023-01-31T10:30:05.951Z,5.01
2023-01-31T10:33:28.845Z,4.82
2023-01-31T10:36:39.423Z,4.56
2023-01-31T10:39:51.651Z,4.53
2023-01-31T10:43:05.706Z,4.30
2023-01-31T10:46:13.210Z,3.30
2023-01-31T10:49:24.187Z,3.97
2023-01-31T10:52:54.214Z,4.83
2023-01-31T10:56:06.403Z,4.80
2023-01-31T10:59:22.926Z,4.82
2023-01-31T11:02:31.367Z,5.01
2023-01-31T11:05:44.492Z,4.80
2023-01-31T11:08:55.253Z,4.53
2023-01-31T11:12:04.785Z,4.54
2023-01-31T11:15:19.088Z,4.68
2023-01-31T11:18:31.275Z,4.25
2023-01-31T11:21:38.266Z,5.25
2023-01-31T11:24:50.508Z,4.90
2023-01-31T11:28:01.170Z,5.24
2023-01-31T11:31:20.614Z,5.10
2023-01-31T11:34:29.949Z,4.85
2023-01-31T11:37:36.138Z,4.69
2023-01-31T11:40:42.886Z,5.25
2023-01-31T11:43:49.381Z,4.46
2023-01-31T11:47:00.137Z,4.59
2023-01-31T11:50:08.213Z,4.60
2023-01-31T11:53:21.134Z,4.52
2023-01-31T11:56:31.697Z,4.63
2023-01-31T11:59:38.284Z,4.79
2023-01-31T12:02:46.682Z,4.26
2023-01-31T12:06:01.896Z,4.89
2023-01-31T12:09:21.773Z,4.64
2023-01-31T12:12:37.346Z,4.56
2023-01-31T12:15:55.520Z,4.23
2023-01-31T12:19:19.353Z,3.95
2023-01-31T12:22:31.852Z,4.26
2023-01-31T12:25:54.773Z,4.19
2023-01-31T12:29:19.524Z,4.13
2023-01-31T12:32:43.864Z,4.31
2023-01-31T12:36:06.616Z,4.95
2023-01-31T12:39:44.038Z,3.93
2023-01-31T12:42:57.911Z,3.95
2023-01-31T12:46:16.197Z,4.40
2023-01-31T12:49:51.561Z,4.34
2023-01-31T12:53:26.560Z,4.19
2023-01-31T12:56:48.202Z,3.41
2023-01-31T13:00:04.801Z,3.85
2023-01-31T13:03:32.620Z,4.02
2023-01-31T13:06:43.310Z,4.43
2023-01-31T13:09:54.320Z,3.55
2023-01-31T13:13:01.515Z,3.84
2023-01-31T13:16:14.723Z,3.92
2023-01-31T13:19:25.424Z,4.09
2023-01-31T13:22:37.511Z,4.54
2023-01-31T13:25:51.564Z,4.41
2023-01-31T13:29:01.938Z,3.76
2023-01-31T13:32:14.208Z,3.70
2023-01-31T13:35:25.588Z,3.44
2023-01-31T13:38:38.870Z,4.02
2023-01-31T13:41:46.415Z,3.84
2023-01-31T13:44:54.324Z,4.40
2023-01-31T13:48:04.820Z,3.86
2023-01-31T13:51:18.211Z,2.54
2023-01-31T13:54:29.310Z,2.37
2023-01-31T13:57:46.704Z,2.15
2023-01-31T14:01:00.313Z,2.48
2023-01-31T14:04:29.421Z,2.45
2023-01-31T14:07:35.656Z,2.36
2023-01-31T14:10:44.648Z,2.02
2023-01-31T14:14:11.692Z,2.39
2023-01-31T14:17:52.460Z,2.20
2023-01-31T14:20:58.877Z,1.97
2023-01-31T14:24:06.531Z,2.19
2023-01-31T14:27:19.012Z,2.33
2023-01-31T14:30:35.965Z,2.24
2023-01-31T14:33:48.679Z,1.99
2023-01-31T14:37:11.403Z,1.98
2023-01-31T14:40:28.946Z,2.02
2023-01-31T14:43:51.445Z,1.95
2023-01-31T14:47:25.791Z,2.03
2023-01-31T14:50:46.156Z,2.33
2023-01-31T14:54:15.743Z,2.08
2023-01-31T14:57:26.750Z,2.06
2023-01-31T15:00:37.151Z,1.77
2023-01-31T15:03:54.048Z,1.70
2023-01-31T15:07:00.107Z,1.64
2023-01-31T15:10:06.822Z,1.82
2023-01-31T15:13:41.384Z,1.97
2023-01-31T15:16:48.635Z,1.81
2023-01-31T15:20:05.491Z,1.55
2023-01-31T15:23:20.334Z,1.78
2023-01-31T15:26:31.357Z,1.88
2023-01-31T15:29:53.053Z,1.68
2023-01-31T15:33:04.829Z,1.90
2023-01-31T15:36:20.315Z,1.76
2023-01-31T15:39:32.463Z,1.79
2023-01-31T15:42:38.988Z,1.78
2023-01-31T15:45:45.647Z,1.63
2023-01-31T15:48:52.139Z,1.56
2023-01-31T15:52:13.984Z,1.52
2023-01-31T15:55:21.329Z,1.46
2023-01-31T15:58:30.025Z,1.46
2023-01-31T16:01:36.924Z,1.23
2023-01-31T16:04:43.859Z,1.47
2023-01-31T16:07:51.725Z,1.53
2023-01-31T16:10:59.414Z,1.35
2023-01-31T16:14:08.123Z,1.30
2023-01-31T16:17:14.707Z,1.43
2023-01-31T16:20:39.909Z,1.29
2023-01-31T16:23:48.092Z,1.37
2023-01-31T16:26:59.926Z,1.24
2023-01-31T16:30:06.879Z,1.33
2023-01-31T16:33:18.667Z,1.05
2023-01-31T16:36:28.953Z,1.07
2023-01-31T16:39:40.305Z,1.17
2023-01-31T16:42:46.873Z,0.98
2023-01-31T16:45:55.401Z,1.01
2023-01-31T16:49:06.767Z,0.80
2023-01-31T16:52:18.782Z,1.12
2023-01-31T16:55:26.574Z,0.79
2023-01-31T16:58:45.779Z,0.85
2023-01-31T17:02:03.941Z,0.96
2023-01-31T17:05:17.518Z,1.04
2023-01-31T17:08:25.562Z,0.95
2023-01-31T17:11:43.075Z,1.10
2023-01-31T17:14:50.484Z,0.72
2023-01-31T17:17:57.585Z,0.89
2023-01-31T17:21:05.999Z,0.86
2023-01-31T17:24:15.236Z,0.94
2023-01-31T17:27:23.128Z,0.95
2023-01-31T17:30:31.238Z,0.90
2023-01-31T17:33:37.201Z,0.85
2023-01-31T17:36:43.750Z,0.87
2023-01-31T17:39:49.747Z,0.85
2023-01-31T17:43:00.736Z,0.92
2023-01-31T17:46:07.030Z,0.88
2023-01-31T17:49:13.083Z,0.85
2023-01-31T17:52:19.466Z,1.09
2023-01-31T17:55:25.675Z,0.87
2023-01-31T17:58:33.555Z,0.77
2023-01-31T18:01:40.016Z,0.89
2023-01-31T18:04:46.265Z,1.05
2023-01-31T18:07:52.996Z,0.89
2023-01-31T18:11:04.986Z,0.67
2023-01-31T18:14:13.039Z,0.86
2023-01-31T18:17:19.978Z,0.85
2023-01-31T18:20:26.160Z,0.76
2023-01-31T18:23:32.537Z,0.70
2023-01-31T18:26:39.305Z,0.75
2023-01-31T18:29:47.247Z,0.87
2023-01-31T18:32:53.913Z,0.81
2023-01-31T18:36:01.603Z,0.87
2023-01-31T18:39:08.168Z,1.02
2023-01-31T18:42:14.720Z,0.88
2023-01-31T18:45:22.751Z,0.92
2023-01-31T18:48:29.349Z,0.69
2023-01-31T18:51:35.984Z,0.75
2023-01-31T18:54:42.689Z,0.87
2023-01-31T18:57:48.910Z,1.06
2023-01-31T19:00:56.548Z,0.93
2023-01-31T19:04:02.820Z,0.90
2023-01-31T19:07:08.977Z,0.92
2023-01-31T19:10:15.557Z,0.93
2023-01-31T19:13:22.078Z,0.97
2023-01-31T19:16:30.825Z,1.08
2023-01-31T19:19:36.861Z,0.90
2023-01-31T19:22:43.368Z,0.99
2023-01-31T19:25:49.779Z,0.89
2023-01-31T19:28:56.591Z,0.93
2023-01-31T19:32:04.467Z,0.64
2023-01-31T19:35:11.054Z,0.91
2023-01-31T19:38:17.561Z,1.15
2023-01-31T19:41:25.556Z,0.85
2023-01-31T19:44:31.930Z,0.99
2023-01-31T19:47:39.997Z,0.74
2023-01-31T19:50:46.401Z,0.85
2023-01-31T19:53:55.938Z,0.97
2023-01-31T19:57:02.361Z,0.73
2023-01-31T20:00:11.256Z,0.81
2023-01-31T20:03:19.167Z,0.74
2023-01-31T20:06:27.917Z,0.72
2023-01-31T20:09:34.112Z,0.80
2023-01-31T20:12:40.380Z,0.81
2023-01-31T20:15:46.890Z,0.49
2023-01-31T20:18:55.598Z,0.57
2023-01-31T20:22:02.005Z,0.60
2023-01-31T20:25:09.444Z,0.51
2023-01-31T20:28:15.772Z,0.42
2023-01-31T20:31:22.593Z,0.45
2023-01-31T20:34:30.265Z,0.50
2023-01-31T20:37:36.787Z,0.36
2023-01-31T20:40:45.227Z,0.40
2023-01-31T20:43:53.305Z,0.57
2023-01-31T20:46:59.759Z,0.43
2023-01-31T20:50:07.800Z,0.37
2023-01-31T20:53:19.756Z,0.41
2023-01-31T20:56:25.885Z,0.31
2023-01-31T20:59:32.221Z,0.36
2023-01-31T21:02:38.908Z,0.41
2023-01-31T21:05:46.752Z,0.39
2023-01-31T21:08:53.157Z,0.29
2023-01-31T21:11:59.280Z,0.23
2023-01-31T21:15:06.732Z,0.19
2023-01-31T21:18:13.268Z,0.20
2023-01-31T21:21:23.915Z,0.26
2023-01-31T21:24:30.177Z,0.21
2023-01-31T21:27:36.647Z,0.00
2023-01-31T21:30:43.263Z,0.37
2023-01-31T21:33:51.098Z,0.30
2023-01-31T21:36:58.983Z,0.15
2023-01-31T21:40:07.263Z,0.23
2023-01-31T21:43:13.814Z,0.25
2023-01-31T21:46:20.442Z,0.22
2023-01-31T21:49:27.496Z,0.25
2023-01-31T21:52:35.060Z,0.14
2023-01-31T21:55:41.395Z,0.19
2023-01-31T21:58:48.210Z,0.24
2023-01-31T22:01:54.687Z,0.22
2023-01-31T22:05:00.876Z,0.22
2023-01-31T22:08:08.679Z,0.24
2023-01-31T22:11:16.447Z,-0.04
2023-01-31T22:14:22.583Z,-0.03
2023-01-31T22:17:28.552Z,-0.06
2023-01-31T22:20:34.705Z,-0.13
2023-01-31T22:23:47.412Z,-0.12
2023-01-31T22:26:53.663Z,-0.23
2023-01-31T22:30:14.068Z,-0.18
2023-01-31T22:33:21.923Z,-0.18
2023-01-31T22:36:28.562Z,-0.10
2023-01-31T22:39:36.302Z,-0.12
2023-01-31T22:42:42.790Z,-0.14
2023-01-31T22:45:50.563Z,-0.03
2023-01-31T22:48:57.100Z,0.12
2023-01-31T22:52:03.584Z,0.08
2023-01-31T22:55:11.834Z,0.00
2023-01-31T22:58:18.605Z,0.14
2023-01-31T23:01:26.623Z,-0.03
2023-01-31T23:04:33.037Z,-0.01
2023-01-31T23:07:39.320Z,-0.07
2023-01-31T23:10:47.352Z,0.10
2023-01-31T23:13:55.413Z,-0.06
2023-01-31T23:17:19.208Z,-0.07
2023-01-31T23:20:25.329Z,-0.12
2023-01-31T23:23:31.767Z,-0.10
2023-01-31T23:26:39.797Z,-0.22
2023-01-31T23:29:45.761Z,-0.22
2023-01-31T23:32:52.452Z,-0.33
2023-01-31T23:35:58.689Z,-0.43
2023-01-31T23:39:05.323Z,-0.30
2023-01-31T23:42:12.990Z,-0.23
2023-01-31T23:45:19.521Z,-0.19
2023-01-31T23:48:25.748Z,-0.32
2023-01-31T23:51:33.909Z,-0.20
2023-01-31T23:54:40.371Z,-0.36
2023-01-31T23:57:48.128Z,-0.32
